createdAt,value
2017-09-15T00:01:09.032Z,12.46
2017-09-15T00:06:06.300Z,12.43
2017-09-15T00:11:01.866Z,12.40
2017-09-15T00:15:58.394Z,12.31
2017-09-15T00:20:54.567Z,12.32
2017-09-15T00:25:51.895Z,12.32
2017-09-15T00:30:48.437Z,12.22
2017-09-15T00:35:43.578Z,12.13
2017-09-15T00:40:39.414Z,12.28
2017-09-15T00:45:35.671Z,12.29
2017-09-15T00:50:31.494Z,12.24
2017-09-15T00:55:27.148Z,12.17
2017-09-15T01:00:22.810Z,12.15
2017-09-15T01:05:18.408Z,12.12
2017-09-15T01:10:15.345Z,12.10
2017-09-15T01:15:12.035Z,12.17
2017-09-15T01:20:07.474Z,12.12
2017-09-15T01:25:03.344Z,12.09
2017-09-15T01:29:59.082Z,12.03
2017-09-15T01:34:55.949Z,12.09
2017-09-15T01:39:52.428Z,12.10
2017-09-15T01:44:48.150Z,12.12
2017-09-15T01:49:43.949Z,12.10
2017-09-15T01:54:39.812Z,12.06
2017-09-15T01:59:37.758Z,12.22
2017-09-15T02:04:33.016Z,12.12
2017-09-15T02:09:29.543Z,12.06
2017-09-15T02:14:25.085Z,12.10
2017-09-15T02:19:21.800Z,12.17
2017-09-15T02:24:17.297Z,12.12
2017-09-15T02:29:13.086Z,12.12
2017-09-15T02:34:09.363Z,12.09
2017-09-15T02:39:05.092Z,12.17
2017-09-15T02:44:01.047Z,12.09
2017-09-15T02:48:56.915Z,12.10
2017-09-15T02:53:52.591Z,12.12
2017-09-15T02:58:48.671Z,12.17
2017-09-15T03:03:44.571Z,12.07
2017-09-15T03:08:40.439Z,12.12
2017-09-15T03:13:36.477Z,12.04
2017-09-15T03:18:32.163Z,12.06
2017-09-15T03:23:29.015Z,12.02
2017-09-15T03:28:25.557Z,12.10
2017-09-15T03:33:21.194Z,11.97
2017-09-15T03:38:17.512Z,11.86
2017-09-15T03:43:12.975Z,11.87
2017-09-15T03:48:08.731Z,11.84
2017-09-15T03:53:04.467Z,11.86
2017-09-15T03:58:00.137Z,11.65
2017-09-15T04:02:56.326Z,11.73
2017-09-15T04:07:52.291Z,11.84
2017-09-15T04:12:48.171Z,11.78
2017-09-15T04:17:44.021Z,11.72
2017-09-15T04:22:40.492Z,11.59
2017-09-15T04:27:38.112Z,11.57
2017-09-15T04:32:33.704Z,11.60
2017-09-15T04:37:31.245Z,11.52
2017-09-15T04:42:27.050Z,11.59
2017-09-15T04:47:23.115Z,11.55
2017-09-15T04:52:19.017Z,11.55
2017-09-15T04:57:14.929Z,11.54
2017-09-15T05:02:10.615Z,11.52
2017-09-15T05:07:07.581Z,11.55
2017-09-15T05:12:03.626Z,11.51
2017-09-15T05:16:59.254Z,11.51
2017-09-15T05:21:55.013Z,11.57
2017-09-15T05:26:51.126Z,11.52
2017-09-15T05:31:48.169Z,11.54
2017-09-15T05:36:43.903Z,11.48
2017-09-15T05:41:40.671Z,11.55
2017-09-15T05:46:36.096Z,11.55
2017-09-15T05:51:33.038Z,11.60
2017-09-15T05:56:28.744Z,11.66
2017-09-15T06:01:26.118Z,11.68
2017-09-15T06:06:23.145Z,11.75
2017-09-15T06:11:19.959Z,11.75
2017-09-15T06:16:16.151Z,11.69
2017-09-15T06:21:12.646Z,11.80
2017-09-15T06:26:09.866Z,12.09
2017-09-15T06:31:07.255Z,12.35
2017-09-15T06:36:03.995Z,12.32
2017-09-15T06:40:59.565Z,12.29
2017-09-15T06:45:56.271Z,12.25
2017-09-15T06:50:53.048Z,12.29
2017-09-15T06:55:49.436Z,12.07
2017-09-15T07:00:44.874Z,12.13
2017-09-15T07:05:42.922Z,12.29
2017-09-15T07:10:38.619Z,12.25
2017-09-15T07:15:36.491Z,12.31
2017-09-15T07:20:32.884Z,12.42
2017-09-15T07:25:28.490Z,12.47
2017-09-15T07:30:24.692Z,12.72
2017-09-15T07:35:20.547Z,12.72
2017-09-15T07:40:16.496Z,12.83
2017-09-15T07:45:12.435Z,12.87
2017-09-15T07:50:08.964Z,12.91
2017-09-15T07:55:04.192Z,12.93
2017-09-15T08:00:01.097Z,13.08
2017-09-15T08:04:57.006Z,13.18
2017-09-15T08:09:53.880Z,13.46
2017-09-15T08:14:50.929Z,13.68
2017-09-15T08:19:47.840Z,13.59
2017-09-15T08:24:43.585Z,13.78
2017-09-15T08:29:40.256Z,13.68
2017-09-15T08:34:36.685Z,13.52
2017-09-15T08:39:33.714Z,13.30
2017-09-15T08:44:28.617Z,13.22
2017-09-15T08:49:24.432Z,13.20
2017-09-15T08:54:20.048Z,13.15
2017-09-15T08:59:15.903Z,13.25
2017-09-15T09:04:11.477Z,13.28
2017-09-15T09:09:08.295Z,13.18
2017-09-15T09:14:03.679Z,13.50
2017-09-15T09:19:00.666Z,13.81
2017-09-15T09:23:58.002Z,14.00
2017-09-15T09:28:54.843Z,14.08
2017-09-15T09:33:50.204Z,14.30
2017-09-15T09:38:46.043Z,14.32
2017-09-15T09:43:42.082Z,14.44
2017-09-15T09:48:40.472Z,14.68
2017-09-15T09:53:37.025Z,14.88
2017-09-15T09:58:32.594Z,14.60
2017-09-15T10:03:28.064Z,14.50
2017-09-15T10:08:24.031Z,14.58
2017-09-15T10:13:19.451Z,14.33
2017-09-15T10:18:14.697Z,14.18
2017-09-15T10:23:11.069Z,14.45
2017-09-15T10:28:08.001Z,14.36
2017-09-15T10:33:03.578Z,14.84
2017-09-15T10:38:00.730Z,15.43
2017-09-15T10:42:57.967Z,15.73
2017-09-15T10:47:53.930Z,16.31
2017-09-15T10:52:50.707Z,17.08
2017-09-15T10:57:47.810Z,17.79
2017-09-15T11:02:45.879Z,17.97
2017-09-15T11:07:42.383Z,18.26
2017-09-15T11:12:38.441Z,16.54
2017-09-15T11:17:34.116Z,16.46
2017-09-15T11:22:28.536Z,15.73
2017-09-15T11:27:23.960Z,15.37
2017-09-15T11:32:19.434Z,15.31
2017-09-15T11:37:17.066Z,15.04
2017-09-15T11:42:12.478Z,15.10
2017-09-15T11:47:08.819Z,15.70
2017-09-15T11:52:07.329Z,16.41
2017-09-15T11:57:05.697Z,17.31
2017-09-15T12:02:01.990Z,17.39
2017-09-15T12:06:56.727Z,16.61
2017-09-15T12:11:51.896Z,16.35
2017-09-15T12:16:47.162Z,16.16
2017-09-15T12:21:43.990Z,16.10
2017-09-15T12:26:40.544Z,16.12
2017-09-15T12:31:35.884Z,15.95
2017-09-15T12:36:31.414Z,16.02
2017-09-15T12:41:27.410Z,16.04
2017-09-15T12:46:23.240Z,16.13
2017-09-15T12:51:20.045Z,15.97
2017-09-15T12:56:15.690Z,15.98
2017-09-15T13:01:12.567Z,16.09
2017-09-15T13:06:08.524Z,16.09
2017-09-15T13:11:04.581Z,16.35
2017-09-15T13:16:00.264Z,15.97
2017-09-15T13:20:56.151Z,15.97
2017-09-15T13:25:51.943Z,15.83
2017-09-15T13:30:47.623Z,15.76
2017-09-15T13:35:43.230Z,15.57
2017-09-15T13:40:39.056Z,15.76
2017-09-15T13:45:35.497Z,15.82
2017-09-15T13:50:32.413Z,15.79
2017-09-15T13:55:30.034Z,15.75
2017-09-15T14:00:26.325Z,15.80
2017-09-15T14:05:21.597Z,15.73
2017-09-15T14:10:18.686Z,15.84
2017-09-15T14:15:14.320Z,15.82
2017-09-15T14:20:10.085Z,15.73
2017-09-15T14:25:05.658Z,15.64
2017-09-15T14:30:01.537Z,15.65
2017-09-15T14:34:57.321Z,15.70
2017-09-15T14:39:53.257Z,15.61
2017-09-15T14:44:49.263Z,15.62
2017-09-15T14:49:46.356Z,15.76
2017-09-15T14:54:42.009Z,15.76
2017-09-15T14:59:39.001Z,15.75
2017-09-15T15:04:35.510Z,15.75
2017-09-15T15:09:32.265Z,15.65
2017-09-15T15:14:28.960Z,15.65
2017-09-15T15:19:25.377Z,15.49
2017-09-15T15:24:20.753Z,15.36
2017-09-15T15:29:16.586Z,15.24
2017-09-15T15:34:12.466Z,15.25
2017-09-15T15:39:08.815Z,15.31
2017-09-15T15:44:05.520Z,15.42
2017-09-15T15:49:01.566Z,15.51
2017-09-15T15:53:58.633Z,15.52
2017-09-15T15:58:54.115Z,15.49
2017-09-15T16:03:49.680Z,15.35
2017-09-15T16:08:45.494Z,15.22
2017-09-15T16:13:41.251Z,15.09
2017-09-15T16:18:37.992Z,14.96
2017-09-15T16:23:34.344Z,14.88
2017-09-15T16:28:29.819Z,14.82
2017-09-15T16:33:26.727Z,14.84
2017-09-15T16:38:22.414Z,14.78
2017-09-15T16:43:18.042Z,14.66
2017-09-15T16:48:13.725Z,14.48
2017-09-15T16:53:11.446Z,14.44
2017-09-15T16:58:08.589Z,14.43
2017-09-15T17:03:04.263Z,14.14
2017-09-15T17:08:00.163Z,13.85
2017-09-15T17:12:55.852Z,13.86
2017-09-15T17:17:51.981Z,13.53
2017-09-15T17:22:47.736Z,13.33
2017-09-15T17:27:43.737Z,13.33
2017-09-15T17:32:40.438Z,13.30
2017-09-15T17:37:35.953Z,13.20
2017-09-15T17:42:32.413Z,13.11
2017-09-15T17:47:28.597Z,13.01
2017-09-15T17:52:24.102Z,12.83
2017-09-15T17:57:20.681Z,12.73
2017-09-15T18:02:16.284Z,12.58
2017-09-15T18:07:12.718Z,12.49
2017-09-15T18:12:09.369Z,12.43
2017-09-15T18:17:04.820Z,12.42
2017-09-15T18:22:01.624Z,12.50
2017-09-15T18:26:57.385Z,12.45
2017-09-15T18:31:54.173Z,12.39
2017-09-15T18:36:50.798Z,12.18
2017-09-15T18:41:46.514Z,12.24
2017-09-15T18:46:43.818Z,12.20
2017-09-15T18:51:39.404Z,12.17
2017-09-15T18:56:35.225Z,12.15
2017-09-15T19:01:31.575Z,12.18
2017-09-15T19:06:26.997Z,12.27
2017-09-15T19:11:23.997Z,12.22
2017-09-15T19:16:19.467Z,12.10
2017-09-15T19:21:15.156Z,11.88
2017-09-15T19:26:13.271Z,11.84
2017-09-15T19:31:09.614Z,11.87
2017-09-15T19:36:06.099Z,12.00
2017-09-15T19:41:01.608Z,12.03
2017-09-15T19:45:57.440Z,11.97
2017-09-15T19:50:54.404Z,11.87
2017-09-15T19:55:51.376Z,11.83
2017-09-15T20:00:47.106Z,11.77
2017-09-15T20:05:42.752Z,11.86
2017-09-15T20:10:40.016Z,11.83
2017-09-15T20:15:36.326Z,11.84
2017-09-15T20:20:33.042Z,11.86
2017-09-15T20:25:28.531Z,11.80
2017-09-15T20:30:24.243Z,11.84
2017-09-15T20:35:21.076Z,11.84
2017-09-15T20:40:18.589Z,11.87
2017-09-15T20:45:14.622Z,11.80
2017-09-15T20:50:11.263Z,11.86
2017-09-15T20:55:07.285Z,11.75
2017-09-15T21:00:03.293Z,11.54
2017-09-15T21:04:59.445Z,11.32
2017-09-15T21:09:56.229Z,11.22
2017-09-15T21:14:52.826Z,11.32
2017-09-15T21:19:48.306Z,11.15
2017-09-15T21:24:45.292Z,11.26
2017-09-15T21:29:40.882Z,11.23
2017-09-15T21:34:36.642Z,11.36
2017-09-15T21:39:33.414Z,11.35
2017-09-15T21:44:28.917Z,11.35
2017-09-15T21:49:24.687Z,11.35
2017-09-15T21:54:20.612Z,11.43
2017-09-15T21:59:16.545Z,11.40
2017-09-15T22:04:12.245Z,11.25
2017-09-15T22:09:08.092Z,11.11
2017-09-15T22:14:03.902Z,10.90
2017-09-15T22:18:59.368Z,10.81
2017-09-15T22:23:54.674Z,10.57
2017-09-15T22:28:50.540Z,10.64
2017-09-15T22:33:45.947Z,10.63
2017-09-15T22:38:42.589Z,10.51
2017-09-15T22:43:38.062Z,10.64
2017-09-15T22:48:33.736Z,10.79
2017-09-15T22:53:30.414Z,10.71
2017-09-15T22:58:25.887Z,10.61
2017-09-15T23:03:22.178Z,10.57
2017-09-15T23:08:18.127Z,10.42
2017-09-15T23:13:14.661Z,10.30
2017-09-15T23:18:10.182Z,10.37
2017-09-15T23:23:06.346Z,10.31
2017-09-15T23:28:01.676Z,10.41
2017-09-15T23:32:57.406Z,10.38
2017-09-15T23:37:53.371Z,10.48
2017-09-15T23:42:50.106Z,10.34
2017-09-15T23:47:45.932Z,10.28
2017-09-15T23:52:41.384Z,10.23
2017-09-15T23:57:39.125Z,10.28
